createdAt,value
2018-02-07T00:14:49.828Z,95807.98
2018-02-07T00:17:17.668Z,95811.91
2018-02-07T00:19:45.200Z,95813.48
2018-02-07T00:22:14.624Z,95805.25
2018-02-07T00:24:42.195Z,95804.94
2018-02-07T00:27:09.729Z,95812.17
2018-02-07T00:29:38.932Z,95807.66
2018-02-07T00:32:06.509Z,95813.59
2018-02-07T00:34:34.257Z,95811.78
2018-02-07T00:37:01.797Z,95816.53
2018-02-07T00:39:29.704Z,95817.33
2018-02-07T00:41:57.225Z,95803.03
2018-02-07T00:44:24.754Z,95806.06
2018-02-07T00:46:52.307Z,95810.11
2018-02-07T00:49:19.859Z,95816.46
2018-02-07T00:51:47.692Z,95809.31
2018-02-07T00:54:15.331Z,95804.86
2018-02-07T00:56:42.897Z,95797.50
2018-02-07T00:59:10.412Z,95806.77
2018-02-07T01:01:38.095Z,95813.84
2018-02-07T01:04:05.871Z,95794.16
2018-02-07T01:06:33.407Z,95774.81
2018-02-07T01:09:00.962Z,95780.84
2018-02-07T01:11:28.496Z,95781.55
2018-02-07T01:13:56.020Z,95790.19
2018-02-07T01:16:23.568Z,95778.37
2018-02-07T01:18:51.093Z,95772.91
2018-02-07T01:21:18.632Z,95776.86
2018-02-07T01:23:46.216Z,95774.56
2018-02-07T01:26:13.966Z,95755.06
2018-02-07T01:28:41.507Z,95763.64
2018-02-07T01:31:09.096Z,95758.54
2018-02-07T01:33:36.609Z,95755.84
2018-02-07T01:36:04.126Z,95758.72
2018-02-07T01:38:31.699Z,95758.33
2018-02-07T01:40:59.221Z,95755.22
2018-02-07T01:43:26.742Z,95753.81
2018-02-07T01:45:54.324Z,95748.71
2018-02-07T01:48:22.100Z,95752.61
2018-02-07T01:50:49.636Z,95742.22
2018-02-07T01:53:17.447Z,95736.75
2018-02-07T01:55:45.287Z,95753.16
2018-02-07T01:58:12.825Z,95740.16
2018-02-07T02:00:40.377Z,95742.84
2018-02-07T02:03:07.911Z,95744.20
2018-02-07T02:05:35.460Z,95744.93
2018-02-07T02:08:03.020Z,95739.14
2018-02-07T02:10:30.569Z,95741.44
2018-02-07T02:12:58.101Z,95709.64
2018-02-07T02:15:25.660Z,95743.03
2018-02-07T02:17:54.143Z,95734.44
2018-02-07T02:20:21.687Z,95735.64
2018-02-07T02:22:49.249Z,95735.19
2018-02-07T02:25:16.783Z,95741.19
2018-02-07T02:27:44.301Z,95749.13
2018-02-07T02:30:11.976Z,95745.48
2018-02-07T02:32:39.506Z,95746.28
2018-02-07T02:35:07.373Z,95745.88
2018-02-07T02:37:35.168Z,95722.41
2018-02-07T02:40:02.729Z,95725.80
2018-02-07T02:42:30.268Z,95750.33
2018-02-07T02:44:57.848Z,95741.28
2018-02-07T02:47:25.373Z,95719.52
2018-02-07T02:49:52.908Z,95699.01
2018-02-07T02:52:20.459Z,95715.08
2018-02-07T02:54:47.985Z,95717.16
2018-02-07T02:57:15.520Z,95716.20
2018-02-07T02:59:43.093Z,95707.17
2018-02-07T03:02:10.653Z,95700.17
2018-02-07T03:04:38.191Z,95709.86
2018-02-07T03:07:05.733Z,95719.86
2018-02-07T03:09:33.301Z,95729.55
2018-02-07T03:12:01.065Z,95719.47
2018-02-07T03:14:28.596Z,95730.02
2018-02-07T03:16:56.378Z,95727.72
2018-02-07T03:19:23.896Z,95727.31
2018-02-07T03:21:51.441Z,95731.42
2018-02-07T03:24:19.011Z,95726.83
2018-02-07T03:26:46.608Z,95719.75
2018-02-07T03:29:14.162Z,95714.83
2018-02-07T03:31:41.775Z,95706.83
2018-02-07T03:34:09.334Z,95721.73
2018-02-07T03:36:36.895Z,95721.19
2018-02-07T03:39:04.474Z,95732.28
2018-02-07T03:41:31.999Z,95727.75
2018-02-07T03:43:59.852Z,95718.66
2018-02-07T03:46:27.440Z,95736.89
2018-02-07T03:48:55.459Z,95728.80
2018-02-07T03:51:23.229Z,95709.11
2018-02-07T03:53:50.803Z,95682.39
2018-02-07T03:56:18.377Z,95713.09
2018-02-07T03:58:46.593Z,95713.80
2018-02-07T04:01:14.193Z,95708.18
2018-02-07T04:03:41.716Z,95703.89
2018-02-07T04:06:09.476Z,95712.13
2018-02-07T04:08:37.038Z,95718.26
2018-02-07T04:11:04.569Z,95702.63
2018-02-07T04:13:32.110Z,95709.91
2018-02-07T04:15:59.672Z,95701.27
2018-02-07T04:18:27.188Z,95692.16
2018-02-07T04:20:54.706Z,95702.77
2018-02-07T04:23:22.292Z,95696.83
2018-02-07T04:25:49.830Z,95691.68
2018-02-07T04:28:18.544Z,95676.91
2018-02-07T04:30:46.300Z,95685.41
2018-02-07T04:33:13.833Z,95689.05
2018-02-07T04:35:41.692Z,95693.89
2018-02-07T04:38:09.864Z,95683.11
2018-02-07T04:40:38.640Z,95676.51
2018-02-07T04:43:06.413Z,95682.92
2018-02-07T04:45:33.985Z,95670.97
2018-02-07T04:48:01.565Z,95699.69
2018-02-07T04:50:29.152Z,95679.36
2018-02-07T04:52:56.740Z,95682.79
2018-02-07T04:55:24.295Z,95670.58
2018-02-07T04:57:51.834Z,95649.41
2018-02-07T05:00:19.495Z,95646.61
2018-02-07T05:02:47.090Z,95651.20
2018-02-07T05:05:14.669Z,95655.19
2018-02-07T05:07:42.223Z,95666.46
2018-02-07T05:10:09.781Z,95653.06
2018-02-07T05:12:37.564Z,95646.72
2018-02-07T05:15:05.105Z,95652.66
2018-02-07T05:17:32.629Z,95636.66
2018-02-07T05:20:00.175Z,95665.13
2018-02-07T05:22:27.747Z,95670.86
2018-02-07T05:24:55.277Z,95681.06
2018-02-07T05:27:22.832Z,95678.55
2018-02-07T05:29:50.396Z,95675.20
2018-02-07T05:32:17.951Z,95692.67
2018-02-07T05:34:45.471Z,95700.60
2018-02-07T05:37:12.999Z,95701.87
2018-02-07T05:39:40.689Z,95697.31
2018-02-07T05:42:08.235Z,95703.78
2018-02-07T05:44:35.771Z,95712.43
2018-02-07T05:47:03.323Z,95703.77
2018-02-07T05:49:30.884Z,95709.31
2018-02-07T05:51:58.412Z,95707.86
2018-02-07T05:54:25.969Z,95706.36
2018-02-07T05:56:53.572Z,95715.45
2018-02-07T05:59:21.121Z,95706.03
2018-02-07T06:01:48.690Z,95723.00
2018-02-07T06:04:16.499Z,95720.59
2018-02-07T06:06:44.116Z,95716.55
2018-02-07T06:09:11.673Z,95700.33
2018-02-07T06:11:39.217Z,95709.00
2018-02-07T06:14:06.777Z,95696.17
2018-02-07T06:16:34.356Z,95704.25
2018-02-07T06:19:01.896Z,95698.32
2018-02-07T06:21:29.421Z,95686.27
2018-02-07T06:23:57.025Z,95698.50
2018-02-07T06:26:24.542Z,95685.63
2018-02-07T06:28:52.325Z,95693.80
2018-02-07T06:31:19.900Z,95691.62
2018-02-07T06:33:47.435Z,95692.83
2018-02-07T06:36:14.965Z,95686.49
2018-02-07T06:38:42.525Z,95691.17
2018-02-07T06:41:10.051Z,95693.89
2018-02-07T06:43:37.827Z,95685.63
2018-02-07T06:46:05.402Z,95683.88
2018-02-07T06:48:32.963Z,95682.23
2018-02-07T06:51:00.516Z,95678.42
2018-02-07T06:53:28.071Z,95685.76
2018-02-07T06:55:55.601Z,95668.44
2018-02-07T06:58:24.408Z,95660.45
2018-02-07T07:01:07.440Z,95667.79
2018-02-07T07:03:34.968Z,95669.45
2018-02-07T07:06:02.664Z,95665.73
2018-02-07T07:08:30.323Z,95661.63
2018-02-07T07:10:57.846Z,95672.08
2018-02-07T07:13:25.396Z,95673.97
2018-02-07T07:15:52.959Z,95705.05
2018-02-07T07:18:20.492Z,95685.53
2018-02-07T07:20:48.028Z,95686.80
2018-02-07T07:23:15.593Z,95677.05
2018-02-07T07:25:43.156Z,95665.81
2018-02-07T07:28:10.677Z,95651.80
2018-02-07T07:30:39.312Z,95643.89
2018-02-07T07:33:06.837Z,95641.23
2018-02-07T07:35:34.377Z,95639.34
2018-02-07T07:38:01.952Z,95678.13
2018-02-07T07:40:29.473Z,95641.11
2018-02-07T07:42:56.999Z,95664.47
2018-02-07T07:45:24.604Z,95665.28
2018-02-07T07:47:52.125Z,95647.41
2018-02-07T07:50:19.649Z,95652.20
2018-02-07T07:52:47.209Z,95657.69
2018-02-07T07:55:14.756Z,95652.05
2018-02-07T07:57:42.295Z,95665.80
2018-02-07T08:00:09.981Z,95659.58
2018-02-07T08:02:37.553Z,95664.87
2018-02-07T08:05:05.128Z,95665.94
2018-02-07T08:07:32.691Z,95676.52
2018-02-07T08:10:00.219Z,95669.75
2018-02-07T08:12:27.746Z,95648.77
2018-02-07T08:14:55.306Z,95673.03
2018-02-07T08:17:22.816Z,95668.25
2018-02-07T08:19:50.350Z,95677.17
2018-02-07T08:22:17.892Z,95669.52
2018-02-07T08:24:45.418Z,95664.87
2018-02-07T08:27:12.964Z,95653.95
2018-02-07T08:29:40.551Z,95658.09
2018-02-07T08:32:08.116Z,95672.77
2018-02-07T08:34:35.668Z,95676.05
2018-02-07T08:37:03.208Z,95665.36
2018-02-07T08:39:30.882Z,95665.84
2018-02-07T08:41:58.407Z,95656.09
2018-02-07T08:44:25.929Z,95650.67
2018-02-07T08:46:53.470Z,95654.05
2018-02-07T08:49:21.004Z,95653.13
2018-02-07T08:51:48.536Z,95651.38
2018-02-07T08:54:16.102Z,95640.06
2018-02-07T08:56:43.893Z,95665.36
2018-02-07T08:59:11.418Z,95652.50
2018-02-07T09:01:38.993Z,95641.25
2018-02-07T09:04:06.527Z,95649.77
2018-02-07T09:06:34.060Z,95660.50
2018-02-07T09:09:01.617Z,95648.01
2018-02-07T09:11:29.141Z,95646.65
2018-02-07T09:13:56.676Z,95663.92
2018-02-07T09:16:24.235Z,95651.08
2018-02-07T09:18:51.777Z,95664.48
2018-02-07T09:21:19.359Z,95658.14
2018-02-07T09:23:46.901Z,95653.80
2018-02-07T09:26:14.425Z,95665.70
2018-02-07T09:28:41.936Z,95678.13
2018-02-07T09:31:09.498Z,95647.80
2018-02-07T09:33:37.035Z,95681.26
2018-02-07T09:36:04.564Z,95663.86
2018-02-07T09:38:32.124Z,95652.84
2018-02-07T09:40:59.669Z,95585.22
2018-02-07T09:43:27.181Z,95657.29
2018-02-07T09:45:54.765Z,95628.27
2018-02-07T09:48:22.307Z,95639.30
2018-02-07T09:50:49.877Z,95652.37
2018-02-07T09:53:17.465Z,95660.61
2018-02-07T09:55:44.995Z,95661.25
2018-02-07T09:58:12.522Z,95669.36
2018-02-07T10:00:40.069Z,95645.55
2018-02-07T10:03:07.604Z,95667.44
2018-02-07T10:05:35.130Z,95666.16
2018-02-07T10:08:02.680Z,95668.69
2018-02-07T10:10:30.198Z,95660.74
2018-02-07T10:12:57.725Z,95674.39
2018-02-07T10:15:25.390Z,95669.50
2018-02-07T10:17:52.922Z,95649.44
2018-02-07T10:20:20.451Z,95702.95
2018-02-07T10:22:48.011Z,95665.38
2018-02-07T10:25:15.824Z,95612.56
2018-02-07T10:27:43.320Z,95677.17
2018-02-07T10:30:10.934Z,95638.63
2018-02-07T10:32:38.461Z,95631.69
2018-02-07T10:35:05.999Z,95654.72
2018-02-07T10:37:33.554Z,95652.67
2018-02-07T10:40:01.089Z,95641.13
2018-02-07T10:42:28.621Z,95613.86
2018-02-07T10:44:56.198Z,95622.48
2018-02-07T10:47:23.727Z,95600.02
2018-02-07T10:49:51.265Z,95585.64
2018-02-07T10:52:18.822Z,95589.73
2018-02-07T10:54:46.333Z,95590.17
2018-02-07T10:57:13.878Z,95584.22
2018-02-07T10:59:41.451Z,95572.26
2018-02-07T11:02:09.221Z,95557.08
2018-02-07T11:04:36.733Z,95562.41
2018-02-07T11:07:04.304Z,95569.39
2018-02-07T11:09:31.871Z,95564.91
2018-02-07T11:11:59.387Z,95555.86
2018-02-07T11:14:26.917Z,95583.59
2018-02-07T11:16:54.472Z,95555.03
2018-02-07T11:19:21.991Z,95549.05
2018-02-07T11:21:49.521Z,95541.30
2018-02-07T11:24:17.073Z,95521.36
2018-02-07T11:26:44.849Z,95519.56
2018-02-07T11:29:12.386Z,95504.80
2018-02-07T11:31:40.223Z,95526.37
2018-02-07T11:34:07.765Z,95526.20
2018-02-07T11:36:35.346Z,95503.66
2018-02-07T11:39:02.910Z,95530.55
2018-02-07T11:41:30.467Z,95491.64
2018-02-07T11:43:58.058Z,95511.17
2018-02-07T11:46:25.876Z,95524.52
2018-02-07T11:48:53.385Z,95517.31
2018-02-07T11:51:20.915Z,95520.80
2018-02-07T11:53:49.172Z,95507.53
2018-02-07T11:56:16.744Z,95491.00
2018-02-07T11:58:44.277Z,95491.75
2018-02-07T12:01:11.957Z,95513.80
2018-02-07T12:03:39.556Z,95512.31
2018-02-07T12:06:07.355Z,95507.86
2018-02-07T12:08:35.258Z,95481.55
2018-02-07T12:11:03.020Z,95459.77
2018-02-07T12:13:31.004Z,95499.41
2018-02-07T12:15:58.593Z,95469.95
2018-02-07T12:18:26.132Z,95464.63
2018-02-07T12:20:53.719Z,95488.11
2018-02-07T12:23:21.268Z,95464.58
2018-02-07T12:25:48.869Z,95458.95
2018-02-07T12:28:16.750Z,95458.45
2018-02-07T12:30:44.588Z,95449.05
2018-02-07T12:33:12.157Z,95462.03
2018-02-07T12:35:39.685Z,95436.92
2018-02-07T12:38:07.226Z,95447.57
2018-02-07T12:40:34.758Z,95440.36
2018-02-07T12:43:02.304Z,95453.56
2018-02-07T12:45:29.873Z,95437.17
2018-02-07T12:47:57.385Z,95450.80
2018-02-07T12:50:24.931Z,95428.91
2018-02-07T12:52:52.484Z,95437.77
2018-02-07T12:55:20.011Z,95411.81
2018-02-07T12:57:47.554Z,95418.84
2018-02-07T13:00:15.131Z,95423.21
2018-02-07T13:02:42.665Z,95407.34
2018-02-07T13:05:10.224Z,95416.65
2018-02-07T13:07:38.010Z,95418.52
2018-02-07T13:10:05.525Z,95427.41
2018-02-07T13:12:33.074Z,95426.25
2018-02-07T13:15:01.767Z,95428.69
2018-02-07T13:17:29.333Z,95435.08
2018-02-07T13:19:56.902Z,95426.75
2018-02-07T13:22:25.438Z,95420.70
2018-02-07T13:24:52.983Z,95402.16
2018-02-07T13:27:20.507Z,95420.92
2018-02-07T13:29:48.055Z,95387.12
2018-02-07T13:32:15.844Z,95403.23
2018-02-07T13:34:43.375Z,95398.02
2018-02-07T13:37:10.908Z,95405.20
2018-02-07T13:39:38.463Z,95407.59
2018-02-07T13:42:06.002Z,95378.09
2018-02-07T13:44:33.513Z,95370.75
2018-02-07T13:47:01.041Z,95403.04
2018-02-07T13:49:28.604Z,95388.44
2018-02-07T13:51:56.136Z,95410.08
2018-02-07T13:54:23.702Z,95413.09
2018-02-07T13:56:51.262Z,95392.83
2018-02-07T13:59:18.805Z,95404.28
2018-02-07T14:01:46.477Z,95398.20
2018-02-07T14:04:14.001Z,95387.50
2018-02-07T14:06:41.536Z,95392.06
2018-02-07T14:09:09.095Z,95374.73
2018-02-07T14:11:36.655Z,95385.73
2018-02-07T14:14:04.195Z,95387.03
2018-02-07T14:16:31.786Z,95387.26
2018-02-07T14:18:59.359Z,95402.63
2018-02-07T14:21:26.871Z,95374.27
2018-02-07T14:23:54.470Z,95386.52
2018-02-07T14:26:22.021Z,95381.34
2018-02-07T14:28:49.556Z,95376.17
2018-02-07T14:31:17.144Z,95388.48
2018-02-07T14:33:44.904Z,95377.39
2018-02-07T14:36:12.430Z,95350.75
2018-02-07T14:38:40.048Z,95373.25
2018-02-07T14:41:07.588Z,95352.55
2018-02-07T14:43:36.096Z,95391.17
2018-02-07T14:46:03.762Z,95362.94
2018-02-07T14:48:31.322Z,95357.24
2018-02-07T14:50:59.107Z,95386.96
2018-02-07T14:53:26.694Z,95348.73
2018-02-07T14:55:55.154Z,95343.58
2018-02-07T14:58:22.674Z,95346.61
2018-02-07T15:00:50.232Z,95344.96
2018-02-07T15:03:17.757Z,95334.38
2018-02-07T15:05:45.296Z,95340.36
2018-02-07T15:08:12.869Z,95334.43
2018-02-07T15:10:40.406Z,95339.56
2018-02-07T15:13:07.960Z,95345.66
2018-02-07T15:15:35.509Z,95345.09
2018-02-07T15:18:03.286Z,95332.61
2018-02-07T15:20:31.206Z,95339.83
2018-02-07T15:22:58.772Z,95345.27
2018-02-07T15:25:26.289Z,95349.11
2018-02-07T15:27:54.050Z,95333.65
2018-02-07T15:30:21.638Z,95345.23
2018-02-07T15:32:49.172Z,95332.99
2018-02-07T15:35:16.726Z,95329.81
2018-02-07T15:37:45.551Z,95334.53
2018-02-07T15:40:13.141Z,95321.45
2018-02-07T15:42:40.674Z,95332.55
2018-02-07T15:45:25.712Z,95327.09
2018-02-07T15:47:53.238Z,95303.17
2018-02-07T15:53:17.130Z,95329.83
2018-02-07T15:55:47.317Z,95327.38
2018-02-07T15:58:27.696Z,95335.97
2018-02-07T16:01:00.540Z,95301.57
2018-02-07T16:03:28.226Z,95333.41
2018-02-07T16:06:17.080Z,95327.25
2018-02-07T16:08:44.771Z,95339.88
2018-02-07T16:13:51.851Z,95319.75
2018-02-07T16:16:19.368Z,95331.73
2018-02-07T16:18:46.897Z,95333.23
2018-02-07T16:21:14.480Z,95337.88
2018-02-07T16:23:48.260Z,95325.05
2018-02-07T16:26:34.098Z,95316.23
2018-02-07T16:29:01.635Z,95326.05
2018-02-07T16:31:29.197Z,95322.20
2018-02-07T16:33:57.295Z,95312.98
2018-02-07T16:36:25.154Z,95419.41
2018-02-07T16:38:52.855Z,95333.44
2018-02-07T16:41:20.475Z,95335.95
2018-02-07T16:46:39.719Z,95321.62
2018-02-07T16:49:22.839Z,95329.70
2018-02-07T16:51:50.393Z,95345.66
2018-02-07T16:57:04.016Z,95378.70
2018-02-07T16:59:31.568Z,95346.77
2018-02-07T17:01:59.237Z,95353.69
2018-02-07T17:04:28.128Z,95372.22
2018-02-07T17:06:59.154Z,95348.36
2018-02-07T17:09:26.743Z,95352.95
2018-02-07T17:12:06.772Z,95376.10
2018-02-07T17:14:34.583Z,95366.67
2018-02-07T17:17:02.174Z,95300.98
2018-02-07T17:19:29.816Z,95333.38
2018-02-07T17:21:57.526Z,95337.58
2018-02-07T17:24:25.050Z,95330.14
2018-02-07T17:26:55.662Z,95339.62
2018-02-07T17:29:23.679Z,95319.81
2018-02-07T17:31:52.817Z,95333.69
2018-02-07T17:34:20.483Z,95335.09
2018-02-07T17:36:48.017Z,95319.27
2018-02-07T17:41:50.249Z,95315.16
2018-02-07T17:44:38.656Z,95320.95
2018-02-07T17:47:06.240Z,95335.77
2018-02-07T17:49:46.264Z,95109.84
2018-02-07T17:52:13.791Z,95311.08
2018-02-07T17:54:44.673Z,95309.58
2018-02-07T17:57:12.292Z,95349.06
2018-02-07T18:00:04.571Z,95323.91
2018-02-07T18:02:32.477Z,95308.44
2018-02-07T18:05:00.066Z,95290.71
2018-02-07T18:07:27.603Z,95291.66
2018-02-07T18:09:55.178Z,95294.36
2018-02-07T18:12:22.750Z,95293.22
2018-02-07T18:14:50.457Z,95284.92
2018-02-07T18:17:18.193Z,95288.16
2018-02-07T18:19:45.996Z,95304.00
2018-02-07T18:22:15.659Z,95298.45
2018-02-07T18:24:43.258Z,95283.23
2018-02-07T18:27:10.856Z,95271.05
2018-02-07T18:29:38.413Z,95265.27
2018-02-07T18:32:06.024Z,95254.18
2018-02-07T18:34:34.939Z,95250.88
2018-02-07T18:37:02.837Z,95232.66
2018-02-07T18:39:30.518Z,95209.42
2018-02-07T18:41:58.871Z,95229.68
2018-02-07T18:44:26.701Z,95251.94
2018-02-07T18:46:54.374Z,95247.14
2018-02-07T18:49:21.940Z,95251.78
2018-02-07T18:51:49.569Z,95240.31
2018-02-07T18:54:17.604Z,95234.71
2018-02-07T18:56:45.164Z,95224.33
2018-02-07T18:59:12.709Z,95226.28
2018-02-07T19:01:40.287Z,95214.11
2018-02-07T19:04:07.810Z,95207.92
2018-02-07T19:06:35.999Z,95222.73
2018-02-07T19:09:03.593Z,95223.53
2018-02-07T19:11:31.208Z,95227.91
2018-02-07T19:13:58.747Z,95269.49
2018-02-07T19:16:26.303Z,95202.93
2018-02-07T19:18:54.633Z,95196.39
2018-02-07T19:21:22.202Z,95203.33
2018-02-07T19:23:49.948Z,95202.53
2018-02-07T19:26:18.842Z,95202.93
2018-02-07T19:28:46.409Z,95195.58
2018-02-07T19:31:14.327Z,95196.30
2018-02-07T19:33:42.975Z,95223.39
2018-02-07T19:36:11.591Z,95194.79
2018-02-07T19:38:41.846Z,95200.28
2018-02-07T19:41:09.649Z,95197.58
2018-02-07T19:43:37.295Z,95192.41
2018-02-07T19:46:05.123Z,95190.20
2018-02-07T19:48:32.842Z,95185.86
2018-02-07T19:51:01.100Z,95188.16
2018-02-07T19:53:28.931Z,95173.05
2018-02-07T19:55:57.391Z,95183.31
2018-02-07T19:58:24.959Z,95184.75
2018-02-07T20:00:52.563Z,95181.02
2018-02-07T20:03:20.800Z,95172.73
2018-02-07T20:05:48.335Z,95178.59
2018-02-07T20:08:16.104Z,95168.06
2018-02-07T20:10:43.706Z,95178.88
2018-02-07T20:13:11.294Z,95150.90
2018-02-07T20:15:39.069Z,95138.01
2018-02-07T20:18:08.707Z,95125.88
2018-02-07T20:20:37.112Z,95126.65
2018-02-07T20:23:04.965Z,95130.08
2018-02-07T20:25:32.847Z,95131.98
2018-02-07T20:28:00.533Z,95122.89
2018-02-07T20:30:28.375Z,95114.36
2018-02-07T20:32:56.741Z,95125.30
2018-02-07T20:35:24.627Z,95111.98
2018-02-07T20:37:54.494Z,95105.24
2018-02-07T20:40:22.893Z,95094.25
2018-02-07T20:42:51.762Z,95086.48
2018-02-07T20:45:19.690Z,95091.98
2018-02-07T20:47:47.720Z,95075.81
2018-02-07T20:50:15.814Z,95065.78
2018-02-07T20:52:45.465Z,95082.89
2018-02-07T20:55:13.659Z,95091.92
2018-02-07T20:57:41.364Z,95091.48
2018-02-07T21:00:10.325Z,95114.87
2018-02-07T21:02:44.561Z,95113.66
2018-02-07T21:05:13.254Z,95118.31
2018-02-07T21:07:41.125Z,95094.21
2018-02-07T21:10:09.128Z,95103.09
2018-02-07T21:12:37.135Z,95053.73
2018-02-07T21:15:05.185Z,95085.19
2018-02-07T21:17:33.539Z,95083.84
2018-02-07T21:20:01.265Z,95081.39
2018-02-07T21:22:29.380Z,95065.94
2018-02-07T21:24:57.150Z,95066.88
2018-02-07T21:27:24.868Z,95067.47
2018-02-07T21:29:52.400Z,95068.23
2018-02-07T21:32:19.982Z,95069.81
2018-02-07T21:34:47.510Z,95072.52
2018-02-07T21:37:15.023Z,95050.56
2018-02-07T21:39:42.583Z,95036.55
2018-02-07T21:42:10.341Z,95032.90
2018-02-07T21:44:37.873Z,95024.42
2018-02-07T21:47:05.715Z,95030.36
2018-02-07T21:49:33.264Z,95013.48
2018-02-07T21:52:00.794Z,95013.09
2018-02-07T21:54:28.360Z,95028.12
2018-02-07T21:56:55.871Z,95023.13
2018-02-07T21:59:23.654Z,95022.63
2018-02-07T22:01:51.216Z,95011.14
2018-02-07T22:04:19.523Z,95012.53
2018-02-07T22:06:47.076Z,95017.97
2018-02-07T22:09:14.776Z,95032.69
2018-02-07T22:11:42.311Z,95039.87
2018-02-07T22:14:09.848Z,95049.38
2018-02-07T22:16:42.549Z,95055.37
2018-02-07T22:19:13.384Z,95070.09
2018-02-07T22:21:40.921Z,95082.27
2018-02-07T22:24:08.657Z,95084.69
2018-02-07T22:26:36.179Z,95090.34
2018-02-07T22:29:03.736Z,95089.62
2018-02-07T22:31:31.584Z,95097.55
2018-02-07T22:33:59.176Z,95105.69
2018-02-07T22:36:26.958Z,95104.40
2018-02-07T22:38:54.514Z,95127.50
2018-02-07T22:41:22.406Z,95110.19
2018-02-07T22:43:49.962Z,95093.86
2018-02-07T22:46:17.526Z,95098.53
2018-02-07T22:48:45.051Z,95101.13
2018-02-07T22:51:12.584Z,95098.75
2018-02-07T22:53:40.512Z,95102.18
2018-02-07T22:56:08.048Z,95107.81
2018-02-07T22:58:35.565Z,95079.31
2018-02-07T23:01:03.331Z,95068.33
2018-02-07T23:03:30.861Z,95057.49
2018-02-07T23:05:58.573Z,95038.38
2018-02-07T23:08:26.131Z,95000.52
2018-02-07T23:10:53.674Z,94980.20
2018-02-07T23:13:21.208Z,94996.83
2018-02-07T23:15:48.763Z,94990.91
2018-02-07T23:18:16.283Z,94994.77
2018-02-07T23:20:44.074Z,95023.65
2018-02-07T23:23:11.653Z,95040.72
2018-02-07T23:25:39.572Z,95057.58
2018-02-07T23:28:07.227Z,95065.12
2018-02-07T23:30:35.063Z,95081.19
2018-02-07T23:33:02.865Z,95060.63
2018-02-07T23:35:30.407Z,95036.48
2018-02-07T23:37:57.946Z,94998.80
2018-02-07T23:40:25.526Z,95028.33
2018-02-07T23:42:53.186Z,95023.80
2018-02-07T23:45:20.779Z,95046.03
2018-02-07T23:47:48.303Z,95029.98
2018-02-07T23:50:16.216Z,95041.75
2018-02-07T23:52:43.756Z,95032.57
2018-02-07T23:55:11.268Z,94971.86
2018-02-07T23:57:38.805Z,95016.32
